Time;durP1;ratioP1;P1;durP2;ratioP2;P2;SDS_P1;SDS_P2;PMS_P1;PMS_P2;Temp;Humidity;BMP_temperature;BMP_pressure;BME280_temperature;BME280_humidity;BME280_pressure;Samples;Min_cycle;Max_cycle;Signal;HPM_P1;HPM_P2
2022/08/01 00:00:44;;;;;;;6.55;2.58;;;19.80;92.50;;;;;;5092868;28;20469;-65
2022/08/01 00:03:09;;;;;;;5.57;2.38;;;19.90;93.20;;;;;;5075100;28;20047;-63
2022/08/01 00:05:35;;;;;;;3.17;2.42;;;20.00;93.60;;;;;;5075044;28;20032;-64
2022/08/01 00:08:01;;;;;;;7.65;2.90;;;20.10;93.90;;;;;;5093111;28;20077;-65
2022/08/01 00:10:27;;;;;;;4.28;2.25;;;20.00;93.20;;;;;;5074751;28;20025;-65
2022/08/01 00:12:53;;;;;;;4.72;2.30;;;20.00;93.30;;;;;;5092375;28;20082;-65
2022/08/01 00:15:18;;;;;;;7.43;2.75;;;20.00;93.70;;;;;;5093067;28;20170;-65
2022/08/01 00:17:44;;;;;;;5.78;2.55;;;20.20;93.70;;;;;;5093082;28;20046;-65
2022/08/01 00:20:12;;;;;;;4.30;2.20;;;20.40;93.50;;;;;;5094869;28;20028;-66
2022/08/01 00:22:38;;;;;;;3.25;2.00;;;20.60;93.80;;;;;;5096011;28;20043;-64
2022/08/01 00:25:05;;;;;;;4.07;2.22;;;21.00;93.80;;;;;;5096177;28;20024;-65
2022/08/01 00:27:31;;;;;;;3.67;2.47;;;21.40;93.20;;;;;;5097259;28;20024;-63
2022/08/01 00:29:58;;;;;;;5.28;2.50;;;21.60;93.00;;;;;;5095905;28;20449;-64
2022/08/01 00:32:24;;;;;;;6.30;2.65;;;21.70;92.70;;;;;;5097045;28;20043;-64
2022/08/01 00:34:49;;;;;;;6.60;3.10;;;21.80;92.30;;;;;;5097139;28;20019;-63
2022/08/01 00:37:15;;;;;;;7.90;2.63;;;21.60;92.00;;;;;;5097090;28;20448;-63
2022/08/01 00:39:41;;;;;;;6.25;2.90;;;21.60;91.90;;;;;;5097355;28;20020;-63
2022/08/01 00:42:09;;;;;;;6.22;2.90;;;21.50;92.10;;;;;;5096962;28;20400;-63
2022/08/01 00:44:35;;;;;;;8.55;2.70;;;21.40;92.40;;;;;;5096900;28;20453;-61
2022/08/01 00:47:01;;;;;;;7.03;2.50;;;21.50;92.50;;;;;;5096902;28;20024;-63
2022/08/01 00:49:28;;;;;;;6.55;2.92;;;21.50;92.30;;;;;;5097199;28;20059;-64
2022/08/01 00:51:54;;;;;;;92.63;5.63;;;21.50;92.50;;;;;;5096696;28;20072;-63
2022/08/01 00:54:20;;;;;;;4.40;2.08;;;21.30;92.90;;;;;;5096760;28;20024;-63
2022/08/01 00:56:47;;;;;;;4.03;2.25;;;21.50;93.10;;;;;;5096663;28;20099;-64
2022/08/01 00:59:16;;;;;;;4.45;2.65;;;21.40;93.10;;;;;;5096376;28;20414;-65
2022/08/01 01:01:42;;;;;;;4.85;2.65;;;21.50;93.30;;;;;;5095296;28;20035;-64
2022/08/01 01:04:07;;;;;;;7.22;3.65;;;21.40;93.60;;;;;;5096579;28;20028;-64
2022/08/01 01:07:08;;;;;;;7.07;2.80;;;21.50;93.80;;;;;;5096265;28;20045;-62
2022/08/01 01:10:00;;;;;;;3.27;2.67;;;21.50;93.70;;;;;;5096851;28;20044;-63
2022/08/01 01:12:35;;;;;;;11.50;3.75;;;21.60;93.70;;;;;;5094993;28;20028;-62
2022/08/01 01:15:14;;;;;;;8.35;2.88;;;21.60;93.70;;;;;;5096025;28;20446;-63
2022/08/01 01:18:07;;;;;;;9.07;3.33;;;21.70;93.70;;;;;;5096254;28;20141;-63
2022/08/01 01:20:46;;;;;;;6.37;2.93;;;21.70;93.60;;;;;;5096320;28;20020;-63
2022/08/01 01:23:27;;;;;;;5.72;3.05;;;21.70;93.70;;;;;;5095950;28;20383;-64
2022/08/01 01:26:17;;;;;;;8.40;3.35;;;21.70;93.70;;;;;;5096205;28;20034;-64
2022/08/01 01:29:08;;;;;;;4.97;2.83;;;21.80;93.70;;;;;;5096154;28;20028;-65
2022/08/01 01:31:46;;;;;;;7.60;3.15;;;21.90;93.30;;;;;;5094880;28;20029;-63
2022/08/01 01:34:15;;;;;;;5.50;3.53;;;21.80;93.80;;;;;;5095727;28;20032;-64
2022/08/01 01:36:43;;;;;;;11.20;3.13;;;21.80;93.60;;;;;;5094566;28;20040;-62
2022/08/01 01:39:11;;;;;;;4.60;2.80;;;21.70;93.50;;;;;;5095877;28;20035;-62
2022/08/01 01:41:38;;;;;;;5.90;3.03;;;21.60;94.10;;;;;;5094612;28;20492;-62
2022/08/01 01:44:06;;;;;;;6.47;3.30;;;21.60;94.00;;;;;;5095766;28;20024;-62
2022/08/01 01:46:32;;;;;;;;;;;21.60;94.20;;;;;;5094534;28;20465;-62
2022/08/01 01:49:00;;;;;;;6.40;2.90;;;21.60;94.20;;;;;;5096094;28;20182;-62
2022/08/01 01:51:28;;;;;;;7.32;3.65;;;21.80;94.20;;;;;;5095607;28;20028;-62
2022/08/01 01:53:56;;;;;;;8.93;3.63;;;21.70;94.00;;;;;;5095612;28;20022;-65
2022/08/01 01:56:23;;;;;;;5.18;3.10;;;21.00;94.20;;;;;;5095543;28;20102;-62
2022/08/01 01:58:53;;;;;;;4.68;3.17;;;20.70;95.40;;;;;;5095372;28;20067;-63
2022/08/01 02:01:21;;;;;;;9.63;3.88;;;21.10;94.40;;;;;;5095042;28;20052;-62
2022/08/01 02:03:49;;;;;;;5.22;3.42;;;20.20;95.30;;;;;;5095674;28;20415;-62
2022/08/01 02:06:16;;;;;;;11.80;3.83;;;20.10;95.50;;;;;;5095342;28;20024;-62
2022/08/01 02:08:43;;;;;;;5.18;3.45;;;19.90;96.20;;;;;;5095261;28;20020;-62
2022/08/01 02:11:18;;;;;;;5.43;2.88;;;19.70;96.80;;;;;;5095307;28;20024;-63
2022/08/01 02:13:52;;;;;;;5.75;3.47;;;20.30;97.10;;;;;;5095276;28;20040;-62
2022/08/01 02:16:19;;;;;;;6.13;3.28;;;20.70;96.60;;;;;;5093962;28;20160;-61
2022/08/01 02:18:45;;;;;;;9.45;3.60;;;20.70;96.10;;;;;;5094879;28;20103;-65
2022/08/01 02:21:16;;;;;;;11.93;4.05;;;20.20;96.20;;;;;;5094206;28;20349;-61
2022/08/01 02:23:43;;;;;;;8.40;3.85;;;20.00;96.90;;;;;;5095076;28;20031;-62
2022/08/01 02:26:15;;;;;;;5.38;3.80;;;19.70;97.10;;;;;;5094980;28;20028;-63
2022/08/01 02:29:05;;;;;;;11.15;4.40;;;19.50;97.40;;;;;;5095228;28;20024;-66
2022/08/01 02:31:34;;;;;;;7.55;4.28;;;19.30;97.70;;;;;;5094864;28;20483;-62
2022/08/01 02:34:05;;;;;;;11.98;3.95;;;19.20;97.90;;;;;;5095046;28;20035;-65
2022/08/01 02:36:35;;;;;;;7.45;3.92;;;19.00;98.40;;;;;;5094834;28;20052;-63
2022/08/01 02:39:06;;;;;;;7.47;3.72;;;19.10;98.70;;;;;;5094756;28;20115;-65
2022/08/01 02:41:38;;;;;;;6.43;3.65;;;19.20;99.40;;;;;;5094724;28;20020;-65
2022/08/01 02:44:06;;;;;;;9.30;4.15;;;19.10;99.10;;;;;;5094411;28;20032;-64
2022/08/01 02:46:38;;;;;;;14.63;4.57;;;;;;;;;;5094803;28;20072;-65
2022/08/01 02:49:06;;;;;;;7.18;4.40;;;;;;;;;;5093188;28;20072;-64
2022/08/01 02:51:32;;;;;;;12.25;4.95;;;;;;;;;;5094411;28;20029;-64
2022/08/01 02:53:59;;;;;;;9.63;4.13;;;;;;;;;;5094452;28;20103;-64
2022/08/01 02:56:34;;;;;;;9.15;3.90;;;;;;;;;;5094359;28;20028;-62
2022/08/01 02:59:02;;;;;;;6.65;4.60;;;;;;;;;;5094370;28;20016;-62
2022/08/01 03:01:29;;;;;;;13.85;4.95;;;;;;;;;;5094303;28;20028;-62
2022/08/01 03:03:55;;;;;;;7.13;3.95;;;19.00;99.00;;;;;;5094242;28;20217;-62
2022/08/01 03:06:21;;;;;;;12.02;4.40;;;20.00;99.90;;;;;;5093912;28;20031;-62
2022/08/01 03:08:48;;;;;;;6.47;4.00;;;20.40;99.50;;;;;;5094143;28;20346;-62
2022/08/01 03:11:15;;;;;;;8.98;4.35;;;20.50;99.20;;;;;;5094090;28;20020;-63
2022/08/01 03:13:44;;;;;;;6.72;4.05;;;20.40;98.30;;;;;;5094063;28;20035;-62
2022/08/01 03:16:12;;;;;;;7.70;4.38;;;20.10;99.10;;;;;;5094269;28;20062;-62
2022/08/01 03:18:41;;;;;;;8.40;4.15;;;20.20;98.40;;;;;;5094244;28;20025;-65
2022/08/01 03:21:08;;;;;;;10.15;4.18;;;20.30;99.00;;;;;;5093970;28;20031;-62
2022/08/01 03:23:36;;;;;;;6.53;4.00;;;20.40;99.00;;;;;;5093885;28;20063;-62
2022/08/01 03:26:02;;;;;;;9.32;3.65;;;20.60;98.80;;;;;;5093833;28;20028;-65
2022/08/01 03:28:30;;;;;;;8.07;4.05;;;20.80;98.80;;;;;;5093793;28;20464;-62
2022/08/01 03:30:58;;;;;;;5.72;3.35;;;20.20;98.20;;;;;;5093804;28;20028;-63
2022/08/01 03:33:23;;;;;;;6.60;3.80;;;20.00;99.40;;;;;;5093645;28;20152;-62
2022/08/01 03:35:53;;;;;;;8.27;3.47;;;20.40;98.90;;;;;;5093699;28;20036;-61
2022/08/01 03:38:23;;;;;;;8.10;4.00;;;20.50;99.10;;;;;;5093637;28;20028;-62
2022/08/01 03:41:15;;;;;;;6.97;3.90;;;20.40;99.30;;;;;;5093714;28;20020;-65
2022/08/01 03:43:47;;;;;;;6.20;4.18;;;20.00;99.10;;;;;;5093561;28;20032;-65
2022/08/01 03:46:47;;;;;;;10.10;4.40;;;19.50;99.50;;;;;;5093594;28;20360;-64
2022/08/01 03:49:19;;;;;;;9.83;3.33;;;19.40;99.90;;;;;;5092874;28;20074;-63
2022/08/01 03:51:50;;;;;;;7.83;3.57;;;19.50;99.90;;;;;;5093470;28;20032;-63
2022/08/01 03:54:20;;;;;;;4.47;4.03;;;20.20;99.90;;;;;;5092907;28;20028;-63
2022/08/01 03:56:48;;;;;;;7.35;4.50;;;19.60;99.90;;;;;;5093382;28;20081;-62
2022/08/01 03:59:16;;;;;;;8.10;4.35;;;20.20;99.90;;;;;;5093187;28;20152;-63
2022/08/01 04:01:44;;;;;;;7.50;4.20;;;20.00;99.50;;;;;;5093461;28;20034;-63
2022/08/01 04:04:10;;;;;;;11.50;5.00;;;19.60;99.90;;;;;;5093436;28;20012;-63
2022/08/01 04:06:45;;;;;;;7.37;3.63;;;19.40;99.90;;;;;;5093552;28;19911;-64
2022/08/01 04:09:14;;;;;;;11.20;3.85;;;19.80;99.90;;;;;;5093265;28;20024;-63
2022/08/01 04:11:41;;;;;;;13.15;4.00;;;20.00;99.90;;;;;;5093177;28;20032;-64
2022/08/01 04:14:07;;;;;;;9.07;4.07;;;20.20;99.90;;;;;;5093215;28;20028;-62
2022/08/01 04:16:34;;;;;;;4.97;3.90;;;20.50;99.90;;;;;;5091812;28;20028;-62
2022/08/01 04:19:00;;;;;;;12.68;5.20;;;20.00;99.90;;;;;;5093119;28;20024;-64
2022/08/01 04:21:28;;;;;;;6.90;4.10;;;20.10;99.90;;;;;;5093221;28;20020;-62
2022/08/01 04:24:00;;;;;;;8.05;4.20;;;19.80;99.90;;;;;;5093087;28;20028;-64
2022/08/01 04:26:27;;;;;;;;;;;19.40;99.90;;;;;;5093414;28;20554;-62
2022/08/01 04:28:54;;;;;;;;;;;19.30;99.90;;;;;;5092887;28;19908;-63
2022/08/01 04:31:22;;;;;;;7.18;4.05;;;19.60;99.90;;;;;;5091676;28;20091;-64
2022/08/01 04:33:51;;;;;;;5.25;4.05;;;19.50;99.90;;;;;;5092697;28;20039;-64
2022/08/01 04:36:21;;;;;;;10.27;4.53;;;19.40;99.90;;;;;;5092963;28;20488;-63
2022/08/01 04:38:54;;;;;;;12.20;4.90;;;19.30;99.90;;;;;;5093009;28;20031;-64
2022/08/01 04:41:21;;;;;;;10.68;4.55;;;19.00;99.90;;;;;;5092976;28;20028;-63
2022/08/01 04:43:47;;;;;;;12.43;4.63;;;19.10;99.90;;;;;;5092898;28;20121;-63
2022/08/01 04:46:14;;;;;;;9.15;4.63;;;19.10;99.90;;;;;;5092894;28;20575;-62
2022/08/01 04:48:40;;;;;;;8.93;4.80;;;;;;;;;;5092873;28;20035;-63
2022/08/01 04:51:16;;;;;;;11.13;5.20;;;;;;;;;;5092901;28;20024;-64
2022/08/01 04:53:42;;;;;;;10.82;4.63;;;;;;;;;;5091416;28;20033;-63
2022/08/01 04:56:08;;;;;;;10.80;4.80;;;19.10;99.90;;;;;;5092865;28;20146;-63
2022/08/01 04:58:34;;;;;;;6.80;4.00;;;18.70;99.90;;;;;;5091439;28;20496;-63
2022/08/01 05:01:00;;;;;;;15.82;4.18;;;18.90;99.90;;;;;;5092237;28;20059;-63
2022/08/01 05:03:26;;;;;;;12.32;4.22;;;19.10;99.90;;;;;;5092445;28;20024;-64
2022/08/01 05:05:51;;;;;;;13.48;4.30;;;19.00;99.90;;;;;;5092778;28;20058;-64
2022/08/01 05:08:17;;;;;;;6.70;4.03;;;19.10;99.90;;;;;;5096469;28;20461;-63
2022/08/01 05:10:43;;;;;;;7.75;3.40;;;19.10;99.90;;;;;;5096479;28;20028;-63
2022/08/01 05:13:09;;;;;;;13.13;3.72;;;;;;;;;;5096368;28;20032;-63
2022/08/01 05:15:38;;;;;;;8.25;4.22;;;19.30;99.90;;;;;;5096330;28;20106;-63
2022/08/01 05:18:04;;;;;;;15.35;4.50;;;19.40;99.90;;;;;;5096315;28;20028;-63
2022/08/01 05:20:30;;;;;;;10.13;4.20;;;19.50;99.90;;;;;;5095934;28;20789;-63
2022/08/01 05:22:57;;;;;;;8.00;3.72;;;19.70;99.90;;;;;;5096269;28;20042;-63
2022/08/01 05:25:23;;;;;;;13.60;3.85;;;19.80;99.90;;;;;;5096153;28;20066;-63
2022/08/01 05:27:49;;;;;;;6.75;3.83;;;19.90;99.90;;;;;;5096169;28;20035;-63
2022/08/01 05:30:15;;;;;;;11.80;5.32;;;20.00;99.90;;;;;;5096105;28;20059;-63
2022/08/01 05:32:41;;;;;;;11.35;4.55;;;20.10;99.90;;;;;;5095976;28;20515;-63
2022/08/01 05:35:08;;;;;;;6.65;3.60;;;20.30;99.90;;;;;;5096290;28;20039;-63
2022/08/01 05:37:34;;;;;;;12.50;3.80;;;20.40;99.90;;;;;;5095842;28;20104;-63
2022/08/01 05:40:00;;;;;;;;;;;20.50;99.90;;;;;;5094357;28;20115;-63
2022/08/01 05:42:26;;;;;;;;;;;20.70;99.90;;;;;;5095930;28;20128;-63
2022/08/01 05:44:52;;;;;;;7.93;3.60;;;20.80;99.90;;;;;;5095938;28;20343;-63
2022/08/01 05:47:18;;;;;;;7.53;3.63;;;20.90;99.90;;;;;;5094357;28;20469;-62
2022/08/01 05:49:45;;;;;;;7.50;4.25;;;20.90;99.90;;;;;;5095638;28;20024;-63
2022/08/01 05:52:11;;;;;;;9.93;3.70;;;20.90;99.90;;;;;;5095607;28;20056;-63
2022/08/01 05:54:38;;;;;;;5.35;3.50;;;;;;;;;;5095584;28;20105;-63
2022/08/01 05:57:03;;;;;;;4.38;3.67;;;21.00;99.90;;;;;;5095599;28;20038;-63
2022/08/01 05:59:30;;;;;;;8.88;3.47;;;21.20;99.90;;;;;;5095188;28;20131;-63
2022/08/01 06:01:56;;;;;;;10.18;4.05;;;21.20;99.90;;;;;;5095393;28;20039;-63
2022/08/01 06:04:22;;;;;;;11.15;3.95;;;;;;;;;;5094382;28;20354;-63
2022/08/01 06:06:48;;;;;;;6.45;3.42;;;21.30;99.90;;;;;;5095601;28;20373;-63
2022/08/01 06:09:14;;;;;;;9.38;4.22;;;21.40;99.90;;;;;;5095308;28;20032;-62
2022/08/01 06:11:40;;;;;;;10.35;3.95;;;21.50;99.90;;;;;;5095179;28;20113;-63
2022/08/01 06:14:06;;;;;;;5.57;3.65;;;21.50;99.90;;;;;;5094880;28;20357;-62
2022/08/01 06:16:32;;;;;;;6.07;4.25;;;21.70;99.90;;;;;;5095131;28;20032;-63
2022/08/01 06:18:58;;;;;;;9.40;3.95;;;21.70;99.90;;;;;;5094537;28;20020;-63
2022/08/01 06:21:24;;;;;;;18.70;5.25;;;21.70;99.90;;;;;;5094818;28;20043;-63
2022/08/01 06:23:50;;;;;;;11.82;4.40;;;21.80;99.90;;;;;;5094784;28;20553;-63
2022/08/01 06:26:19;;;;;;;11.90;4.10;;;21.80;99.90;;;;;;5095245;28;20028;-63
2022/08/01 06:28:44;;;;;;;6.22;3.95;;;21.90;99.90;;;;;;5093592;28;20123;-63
2022/08/01 06:31:12;;;;;;;10.77;4.57;;;22.10;99.90;;;;;;5094590;28;20047;-63
2022/08/01 06:33:38;;;;;;;6.15;4.07;;;22.10;99.90;;;;;;5094537;28;20089;-64
2022/08/01 06:36:04;;;;;;;8.55;4.78;;;22.30;99.90;;;;;;5094773;28;20438;-63
2022/08/01 06:38:30;;;;;;;11.30;4.03;;;22.30;99.90;;;;;;5094741;28;20537;-66
2022/08/01 06:40:56;;;;;;;15.40;3.95;;;22.40;99.90;;;;;;5094367;28;20023;-64
2022/08/01 06:43:36;;;;;;;7.85;3.75;;;22.40;99.90;;;;;;5094736;28;20139;-63
2022/08/01 06:46:04;;;;;;;11.40;4.63;;;22.60;99.90;;;;;;5092161;28;20047;-64
2022/08/01 06:48:30;;;;;;;9.05;3.50;;;;;;;;;;5094821;28;20468;-64
2022/08/01 06:51:09;;;;;;;5.53;3.50;;;;;;;;;;5093185;28;20031;-64
2022/08/01 06:53:36;;;;;;;6.55;4.15;;;;;;;;;;5093165;28;20385;-61
2022/08/01 06:56:10;;;;;;;6.85;4.28;;;;;;;;;;5094433;28;20031;-64
2022/08/01 06:58:36;;;;;;;9.45;5.60;;;;;;;;;;5094125;28;20028;-61
2022/08/01 07:01:06;;;;;;;11.85;3.88;;;;;;;;;;5094249;28;20048;-61
2022/08/01 07:03:33;;;;;;;5.97;3.30;;;;;;;;;;5094323;28;20016;-62
2022/08/01 07:06:01;;;;;;;8.75;3.38;;;;;;;;;;5094467;28;20056;-63
2022/08/01 07:08:27;;;;;;;6.22;3.22;;;;;;;;;;5093494;28;20499;-62
2022/08/01 07:11:04;;;;;;;5.75;3.50;;;;;;;;;;5094010;28;20024;-63
2022/08/01 07:13:38;;;;;;;3.90;3.20;;;;;;;;;;5093679;28;20432;-63
2022/08/01 07:16:05;;;;;;;9.55;4.00;;;;;;;;;;5093666;28;20093;-65
2022/08/01 07:18:31;;;;;;;6.90;4.03;;;;;;;;;;5094254;28;20125;-62
2022/08/01 07:20:57;;;;;;;7.32;4.03;;;;;;;;;;5092485;28;20147;-62
2022/08/01 07:23:32;;;;;;;5.45;3.85;;;;;;;;;;5092795;28;20023;-62
2022/08/01 07:26:43;;;;;;;8.73;3.70;;;;;;;;;;5090950;28;20023;-65
2022/08/01 07:29:48;;;;;;;9.50;4.20;;;;;;;;;;5072021;28;20028;-63
2022/08/01 07:32:14;;;;;;;5.45;3.75;;;;;;;;;;4989876;28;20574;-63
2022/08/01 07:34:40;;;;;;;5.05;3.30;;;;;;;;;;4975003;28;20037;-63
2022/08/01 07:37:06;;;;;;;6.25;3.70;;;;;;;;;;4991009;28;20049;-65
2022/08/01 07:39:34;;;;;;;5.85;3.63;;;;;;;;;;4974845;28;20496;-62
2022/08/01 07:42:02;;;;;;;7.55;3.38;;;;;;;;;;4974001;28;20072;-63
2022/08/01 07:44:28;;;;;;;5.85;3.42;;;;;;;;;;4989858;28;20026;-62
2022/08/01 07:47:04;;;;;;;7.18;3.38;;;;;;;;;;4973929;28;20513;-63
2022/08/01 07:49:32;;;;;;;5.30;3.30;;;;;;;;;;4971534;28;20031;-62
2022/08/01 07:51:58;;;;;;;3.92;2.97;;;;;;;;;;4990327;28;20039;-64
2022/08/01 07:54:27;;;;;;;5.85;2.72;;;;;;;;;;4989929;28;20085;-64
2022/08/01 07:57:02;;;;;;;9.98;3.08;;;;;;;;;;4990229;28;20023;-64
2022/08/01 07:59:28;;;;;;;5.35;2.80;;;;;;;;;;4973494;28;20185;-65
2022/08/01 08:01:54;;;;;;;5.05;2.83;;;;;;;;;;4991385;28;20204;-64
2022/08/01 08:04:20;;;;;;;3.92;3.05;;;;;;;;;;4991338;28;20491;-63
2022/08/01 08:06:47;;;;;;;8.50;3.08;;;;;;;;;;5049504;28;20029;-63
2022/08/01 08:09:14;;;;;;;4.95;2.80;;;;;;;;;;5075078;28;20491;-63
2022/08/01 08:11:41;;;;;;;4.32;2.80;;;;;;;;;;5093301;28;20035;-63
2022/08/01 08:14:08;;;;;;;4.47;2.83;;;;;;;;;;5091987;28;20024;-63
2022/08/01 08:16:34;;;;;;;5.93;2.95;;;;;;;;;;5092823;28;20026;-63
2022/08/01 08:19:00;;;;;;;3.63;3.05;;;;;;;;;;5092558;28;20024;-63
2022/08/01 08:21:27;;;;;;;5.68;3.63;;;;;;;;;;5092763;28;20030;-63
2022/08/01 08:26:38;;;;;;;5.90;3.10;;;;;;;;;;5092835;28;20038;-63
2022/08/01 08:29:04;;;;;;;10.80;5.25;;;;;;;;;;5092940;28;20026;-63
2022/08/01 08:31:30;;;;;;;2.75;2.50;;;;;;;;;;5092851;28;20093;-63
2022/08/01 08:33:56;;;;;;;6.93;2.33;;;;;;;;;;5074846;28;20028;-63
2022/08/01 08:36:22;;;;;;;10.73;3.45;;;22.70;99.90;;;;;;5090883;28;20076;-64
2022/08/01 08:38:48;;;;;;;5.80;2.53;;;;;;;;;;5092602;28;20028;-65
2022/08/01 08:41:14;;;;;;;7.68;2.95;;;27.80;91.50;;;;;;5094668;28;20023;-62
2022/08/01 08:43:40;;;;;;;3.45;2.35;;;28.00;92.10;;;;;;5097068;28;20084;-63
2022/08/01 08:46:08;;;;;;;4.75;2.60;;;28.10;91.70;;;;;;5096860;28;20074;-64
2022/08/01 08:48:36;;;;;;;3.95;2.47;;;28.10;91.20;;;;;;5096750;28;20024;-63
2022/08/01 08:51:02;;;;;;;3.55;2.50;;;28.20;91.80;;;;;;5096315;28;20482;-63
2022/08/01 08:53:31;;;;;;;3.28;2.30;;;28.50;91.80;;;;;;5078396;28;20064;-63
2022/08/01 08:55:58;;;;;;;4.60;2.45;;;28.60;90.60;;;;;;5096594;28;20081;-65
2022/08/01 08:58:26;;;;;;;2.88;2.38;;;28.80;90.30;;;;;;5096685;28;20028;-65
2022/08/01 09:00:54;;;;;;;6.30;2.78;;;28.90;90.20;;;;;;5096043;28;20128;-65
2022/08/01 09:03:20;;;;;;;3.75;3.10;;;29.00;88.10;;;;;;5096476;28;20036;-62
2022/08/01 09:05:46;;;;;;;5.20;2.38;;;29.00;87.80;;;;;;5096190;28;20024;-64
2022/08/01 09:08:12;;;;;;;4.07;2.95;;;29.00;86.70;;;;;;5096335;28;20475;-64
2022/08/01 09:10:38;;;;;;;3.67;2.05;;;29.30;88.30;;;;;;5096377;28;20032;-64
2022/08/01 09:13:13;;;;;;;2.72;1.98;;;29.30;86.20;;;;;;5077854;28;20044;-65
2022/08/01 09:15:47;;;;;;;5.90;2.60;;;29.50;86.30;;;;;;5096365;28;20024;-64
2022/08/01 09:18:33;;;;;;;7.18;2.42;;;29.80;86.50;;;;;;5096290;28;20016;-64
2022/08/01 09:21:21;;;;;;;4.78;2.28;;;29.80;84.40;;;;;;5096256;28;20024;-65
2022/08/01 09:23:54;;;;;;;4.97;2.45;;;29.80;83.50;;;;;;5096247;28;20465;-65
2022/08/01 09:26:34;;;;;;;4.93;2.42;;;29.80;81.90;;;;;;5096111;28;20115;-65
2022/08/01 09:29:03;;;;;;;9.88;2.75;;;29.80;81.10;;;;;;5077869;28;20388;-64
2022/08/01 09:31:29;;;;;;;4.50;2.17;;;29.90;82.10;;;;;;5095986;28;20024;-64
2022/08/01 09:34:01;;;;;;;2.90;1.92;;;30.00;82.60;;;;;;5096356;28;20104;-64
2022/08/01 09:36:56;;;;;;;3.90;2.58;;;30.20;81.00;;;;;;5096013;28;20032;-64
2022/08/01 09:39:30;;;;;;;4.53;2.00;;;30.40;80.90;;;;;;5095966;28;20047;-64
2022/08/01 09:41:59;;;;;;;2.30;2.10;;;30.30;80.40;;;;;;5095950;28;20476;-64
2022/08/01 09:44:42;;;;;;;2.38;2.17;;;30.40;79.50;;;;;;5077703;28;20027;-63
2022/08/01 09:47:08;;;;;;;3.25;2.50;;;30.50;79.70;;;;;;5077585;28;20465;-64
2022/08/01 09:49:36;;;;;;;4.32;2.58;;;30.70;80.20;;;;;;5095533;28;20031;-65
2022/08/01 09:52:23;;;;;;;4.53;1.98;;;31.00;80.60;;;;;;5094594;28;20125;-64
2022/08/01 09:54:58;;;;;;;4.85;2.38;;;30.90;77.20;;;;;;5095371;28;20020;-64
2022/08/01 09:57:24;;;;;;;2.85;2.03;;;30.90;77.40;;;;;;5095553;28;20023;-64
2022/08/01 09:59:53;;;;;;;2.05;1.85;;;31.00;76.80;;;;;;5095181;28;20048;-65
2022/08/01 10:02:42;;;;;;;4.82;2.10;;;31.30;76.80;;;;;;5095432;28;20028;-64
2022/08/01 10:05:10;;;;;;;2.10;2.00;;;31.50;76.30;;;;;;5095367;28;20464;-65
2022/08/01 10:07:56;;;;;;;2.00;1.80;;;31.50;75.10;;;;;;5095660;28;20028;-62
2022/08/01 10:10:22;;;;;;;61.50;5.88;;;31.70;74.80;;;;;;5094378;28;20486;-63
2022/08/01 10:12:51;;;;;;;3.47;2.03;;;31.90;75.40;;;;;;5092049;28;20039;-66
2022/08/01 10:15:18;;;;;;;6.78;2.20;;;32.00;75.10;;;;;;5094816;28;20024;-66
2022/08/01 10:18:05;;;;;;;2.58;1.77;;;32.30;76.20;;;;;;5095054;28;20028;-64
2022/08/01 10:20:32;;;;;;;5.72;2.42;;;32.50;75.60;;;;;;5095065;28;20030;-66
2022/08/01 10:23:01;;;;;;;2.10;1.90;;;32.80;75.70;;;;;;5094944;28;20488;-65
2022/08/01 10:25:28;;;;;;;2.45;1.75;;;32.10;72.60;;;;;;5094171;28;20031;-64
2022/08/01 10:27:56;;;;;;;2.28;1.92;;;32.40;72.70;;;;;;5094827;28;20521;-63
2022/08/01 10:30:23;;;;;;;2.08;1.98;;;32.80;72.20;;;;;;5095010;28;20031;-64
2022/08/01 10:32:51;;;;;;;4.88;2.00;;;33.40;72.90;;;;;;5094297;28;20434;-65
2022/08/01 10:35:18;;;;;;;2.97;2.00;;;33.30;70.90;;;;;;5094679;28;20119;-65
2022/08/01 10:37:46;;;;;;;3.75;1.85;;;33.20;70.90;;;;;;5076436;28;20548;-65
2022/08/01 10:40:13;;;;;;;2.05;1.90;;;33.40;70.90;;;;;;5094492;28;20027;-66
2022/08/01 10:42:44;;;;;;;6.82;2.60;;;33.60;69.90;;;;;;5094806;28;20039;-64
2022/08/01 10:45:13;;;;;;;2.55;2.28;;;33.10;68.80;;;;;;5094614;28;20166;-64
2022/08/01 10:47:48;;;;;;;2.80;1.73;;;31.70;70.00;;;;;;5095060;28;20766;-63
2022/08/01 10:50:23;;;;;;;2.42;1.92;;;;;;;;;;5094284;28;20069;-63
2022/08/01 10:53:11;;;;;;;3.08;2.22;;;34.50;67.50;;;;;;5094349;28;20369;-65
2022/08/01 10:56:03;;;;;;;3.33;2.00;;;34.50;67.50;;;;;;5094338;28;20472;-64
2022/08/01 10:58:32;;;;;;;;;;;35.20;65.30;;;;;;5094599;28;20099;-65
2022/08/01 11:01:14;;;;;;;10.35;2.40;;;35.70;65.10;;;;;;5093586;28;20007;-65
2022/08/01 11:03:55;;;;;;;4.88;2.28;;;35.20;65.00;;;;;;5075882;28;20032;-65
2022/08/01 11:06:26;;;;;;;3.30;2.17;;;36.30;64.30;;;;;;5094305;28;20067;-65
2022/08/01 11:08:54;;;;;;;3.78;1.90;;;36.70;62.70;;;;;;5094162;28;20032;-66
2022/08/01 11:11:21;;;;;;;4.53;1.80;;;36.80;62.20;;;;;;5094111;28;20032;-67
2022/08/01 11:14:06;;;;;;;3.35;1.75;;;37.10;60.90;;;;;;5093799;28;20103;-66
2022/08/01 11:16:34;;;;;;;3.55;2.03;;;37.00;61.10;;;;;;5093967;28;20024;-65
2022/08/01 11:19:01;;;;;;;1.95;1.80;;;36.00;61.60;;;;;;5093897;28;20032;-63
2022/08/01 11:21:59;;;;;;;2.65;1.60;;;36.60;60.00;;;;;;5093931;28;20469;-63
2022/08/01 11:24:46;;;;;;;5.13;1.60;;;36.90;60.10;;;;;;5092442;28;20016;-66
2022/08/01 11:27:29;;;;;;;4.45;1.85;;;36.80;59.60;;;;;;5093722;28;20111;-68
2022/08/01 11:30:10;;;;;;;2.88;1.88;;;37.00;58.80;;;;;;5093713;28;20468;-64
2022/08/01 11:32:53;;;;;;;;;;;37.60;58.90;;;;;;5075640;28;20507;-65
2022/08/01 11:35:20;;;;;;;2.80;1.60;;;37.80;58.60;;;;;;5093904;28;19982;-64
2022/08/01 11:37:51;;;;;;;1.95;1.70;;;37.70;58.40;;;;;;5093575;28;20024;-65
2022/08/01 11:40:25;;;;;;;4.20;1.67;;;37.60;58.30;;;;;;5093591;28;20035;-64
2022/08/01 11:43:12;;;;;;;3.58;2.25;;;38.20;57.80;;;;;;5093526;28;20039;-67
2022/08/01 11:45:51;;;;;;;2.05;1.63;;;38.30;57.80;;;;;;5076425;28;20464;-65
2022/08/01 11:48:25;;;;;;;1.58;1.40;;;38.90;57.30;;;;;;5074933;28;20051;-63
2022/08/01 11:50:53;;;;;;;5.60;2.10;;;39.10;58.30;;;;;;5093363;28;20032;-62
2022/08/01 11:53:19;;;;;;;2.40;1.50;;;40.40;57.90;;;;;;5092969;28;20123;-64
2022/08/01 11:55:52;;;;;;;2.95;1.90;;;38.80;57.30;;;;;;5093222;28;20480;-63
2022/08/01 11:58:26;;;;;;;4.07;1.65;;;;;;;;;;5092992;28;20024;-64
2022/08/01 12:00:52;;;;;;;3.13;1.30;;;40.50;56.00;;;;;;5093328;28;20048;-66
2022/08/01 12:03:28;;;;;;;9.77;1.77;;;38.90;55.40;;;;;;5074843;28;20029;-65
2022/08/01 12:05:55;;;;;;;2.10;1.60;;;37.80;56.90;;;;;;5093314;28;20539;-65
2022/08/01 12:08:36;;;;;;;3.15;1.63;;;;;;;;;;5091256;28;20024;-66
2022/08/01 12:11:04;;;;;;;1.55;1.45;;;38.50;56.80;;;;;;5092909;28;20059;-66
2022/08/01 12:13:44;;;;;;;8.18;1.75;;;38.60;55.50;;;;;;5092999;28;20069;-66
2022/08/01 12:16:10;;;;;;;3.33;1.67;;;39.50;55.90;;;;;;5092667;28;20024;-66
2022/08/01 12:18:43;;;;;;;3.95;1.30;;;39.70;54.80;;;;;;5093027;28;20058;-66
2022/08/01 12:21:09;;;;;;;4.57;1.88;;;39.90;53.80;;;;;;5092303;28;20469;-65
2022/08/01 12:23:35;;;;;;;2.22;1.55;;;38.50;55.00;;;;;;5092976;28;20111;-65
2022/08/01 12:26:01;;;;;;;3.22;1.42;;;37.90;56.20;;;;;;5092986;28;20507;-64
2022/08/01 12:28:27;;;;;;;3.10;1.75;;;36.10;56.70;;;;;;5092989;28;20028;-68
2022/08/01 12:30:53;;;;;;;3.47;1.77;;;36.80;57.80;;;;;;5092896;28;20039;-65
2022/08/01 12:33:20;;;;;;;2.92;1.67;;;35.40;57.30;;;;;;5092285;28;20051;-63
2022/08/01 12:35:46;;;;;;;3.70;1.45;;;35.20;57.50;;;;;;5092168;28;20032;-67
2022/08/01 12:38:17;;;;;;;3.40;1.65;;;;;;;;;;5091747;28;20020;-66
2022/08/01 12:40:46;;;;;;;2.45;1.45;;;33.30;60.50;;;;;;5091786;28;20515;-65
2022/08/01 12:43:17;;;;;;;4.75;1.70;;;32.90;62.10;;;;;;5091661;28;20476;-65
2022/08/01 12:45:43;;;;;;;;;;;32.60;63.20;;;;;;5074947;28;20376;-65
2022/08/01 12:48:12;;;;;;;5.47;1.80;;;36.30;59.80;;;;;;5092111;28;19908;-65
2022/08/01 12:50:39;;;;;;;7.13;1.98;;;;;;;;;;5092353;28;20031;-66
2022/08/01 12:53:05;;;;;;;1.83;1.73;;;35.70;58.50;;;;;;5074360;28;20064;-64
2022/08/01 12:55:31;;;;;;;2.60;1.73;;;35.70;59.60;;;;;;5092732;28;20028;-65
2022/08/01 12:58:09;;;;;;;1.77;1.40;;;36.00;59.90;;;;;;5074502;28;20544;-65
2022/08/01 13:00:37;;;;;;;2.75;1.60;;;40.10;56.20;;;;;;5074260;28;20048;-65
2022/08/01 13:03:12;;;;;;;1.70;1.60;;;41.20;54.20;;;;;;5092504;28;20114;-64
2022/08/01 13:05:50;;;;;;;1.95;1.52;;;38.90;53.90;;;;;;5092385;28;20020;-65
2022/08/01 13:08:24;;;;;;;1.77;1.67;;;38.70;54.40;;;;;;5092510;28;20028;-63
2022/08/01 13:10:59;;;;;;;5.35;1.70;;;40.50;54.30;;;;;;5074452;28;20102;-66
2022/08/01 13:13:36;;;;;;;1.70;1.60;;;40.00;53.80;;;;;;5092170;28;20385;-65
2022/08/01 13:16:07;;;;;;;1.85;1.40;;;40.00;54.10;;;;;;5074272;28;20111;-65
2022/08/01 13:18:34;;;;;;;3.28;1.60;;;41.90;52.10;;;;;;5074434;28;20028;-64
2022/08/01 13:21:35;;;;;;;2.80;1.70;;;40.60;52.80;;;;;;5092241;28;20531;-64
2022/08/01 13:24:12;;;;;;;4.78;2.00;;;40.20;52.50;;;;;;5010232;28;20509;-64
2022/08/01 13:26:48;;;;;;;2.42;1.42;;;40.80;54.10;;;;;;4993634;28;20041;-65